Latest Coastal Weather Observations for Hogan Island

IDT60701

Issued at 11:52 am EST Monday 26 June 2017 (issued every 10 minutes, with the page automatically refreshed every 10 minutes)

About coastal observations | Map of coastal stations | Coastal observations for TAS | Marine services | Other Formats
Station Details ID: 200838 Name: HOGAN ISLAND Lat: -39.22 Lon: 146.98 Height: 116.0 m
Data from the previous 72 hours. | See also: Recent months at Hogan Island
Date/Time
EST
Temp
°C
Wind Pressure Rain since
9am
mm
Weather Cloud Vis
km
Sea
Height
m
Swell
Dir  Spd
kts
Gust
kts
hPa Trend Height
m
Period
s
Dir
26/11:30am 12.3 WSW 19 24 1021.7 - 0.2 - - - - - - -
26/11:00am 11.6 WSW 20 24 1021.7 - 0.2 - - - - - - -
26/10:33am 10.5 WSW 20 30 1021.7 - 0.2 - - - - - - -
26/10:30am 10.5 WSW 22 30 1021.8 - 0.2 - - - - - - -
26/10:00am 10.4 WSW 21 27 1021.3 - 0.2 - - - - - - -
26/09:30am 10.7 SW 21 27 1020.7 - 0.0 - - - - - - -
26/09:00am 10.4 WSW 22 29 1020.3 - 6.4 - - - - - - -
26/08:30am 10.3 WSW 24 28 1019.7 - 6.4 - - - - - - -
26/08:00am 10.0 SW 24 29 1019.3 - 6.4 - - - - - - -
26/07:30am 9.8 WSW 20 23 1018.9 - 6.4 - - - - - - -
26/07:00am 10.1 WSW 25 30 1018.4 - 6.4 - - - - - - -
26/06:30am 9.9 WSW 26 31 1017.9 - 6.4 - - - - - - -
26/06:00am 10.0 SW 24 28 1017.6 - 6.4 - - - - - - -
26/05:30am 10.2 WSW 28 37 1016.7 - 6.4 - - - - - - -
26/05:29am 10.2 WSW 27 37 1016.7 - 6.4 - - - - - - -
26/05:00am 10.2 WSW 24 31 1016.6 - 6.4 - - - - - - -
26/04:30am 9.6 WSW 27 35 1016.2 - 6.4 - - - - - - -
26/04:00am 10.2 W 28 33 1016.0 - 6.4 - - - - - - -
26/03:30am 10.4 WSW 28 33 1016.0 - 6.4 - - - - - - -
26/03:00am 9.9 WSW 27 33 1016.2 - 6.4 - - - - - - -
26/02:30am 9.7 WSW 29 33 1015.6 - 6.4 - - - - - - -
26/02:07am 10.7 WSW 28 38 1015.2 - 6.4 - - - - - - -
26/02:00am 10.7 WSW 29 36 1015.3 - 6.4 - - - - - - -
26/01:30am 9.9 WSW 31 35 1015.0 - 6.4 - - - - - - -
26/01:05am 10.2 WSW 28 40 1014.9 - 6.4 - - - - - - -
26/01:00am 10.6 WSW 28 34 1015.0 - 6.4 - - - - - - -
26/12:30am 10.4 WSW 25 29 1015.0 - 6.4 - - - - - - -
26/12:00am 11.4 W 31 36 1014.5 - 6.4 - - - - - - -
 
Date/Time
EST
Temp
°C
Wind Pressure Rain since
9am
mm
Weather Cloud Vis
km
Sea
Height
m
Swell
Dir  Spd
kts
Gust
kts
hPa Trend Height
m
Period
s
Dir
25/11:30pm 10.8 WSW 28 34 1014.3 - 6.4 - - - - - - -
25/11:00pm 10.7 W 34 44 1014.3 - 6.4 - - - - - - -
25/10:30pm 10.2 WSW 32 42 1013.9 - 6.4 - - - - - - -
25/10:20pm 10.9 WSW 32 43 1013.6 - 6.2 - - - - - - -
25/10:00pm 11.1 WSW 33 39 1013.4 - 6.2 - - - - - - -
25/09:30pm 11.3 W 34 40 1013.1 - 6.2 - - - - - - -
25/09:00pm 11.2 W 33 38 1013.1 - 6.2 - - - - - - -
25/08:30pm 11.2 W 38 43 1012.3 - 6.2 - - - - - - -
25/08:00pm 11.2 W 35 41 1011.9 - 6.2 - - - - - - -
25/07:30pm 11.4 W 37 43 1011.4 - 6.2 - - - - - - -
25/07:00pm 11.1 W 36 42 1011.0 - 6.2 - - - - - - -
25/06:33pm 10.3 W 38 48 1010.1 - 6.2 - - - - - - -
25/06:30pm 10.5 W 37 44 1010.3 - 6.2 - - - - - - -
25/06:00pm 11.2 W 39 47 1010.2 - 3.0 - - - - - - -
25/05:37pm 10.1 W 41 51 1009.2 - 3.0 - - - - - - -
25/05:30pm 9.9 W 42 50 1009.3 - 3.0 - - - - - - -
25/05:14pm 8.8 WNW 46 56 1009.0 - 2.6 - - - - - - -
25/05:05pm 8.7 W 48 55 1008.7 - 2.0 - - - - - - -
25/05:01pm 9.6 WNW 35 45 1009.7 - 1.0 - - - - - - -
25/05:00pm 9.5 WNW 36 45 1009.6 - 1.0 - - - - - - -
25/04:31pm 10.3 WNW 39 49 1009.2 - 0.0 - - - - - - -
25/04:30pm 10.3 WNW 40 49 1009.1 - 0.0 - - - - - - -
25/04:27pm 10.3 WNW 39 49 1008.7 - 0.0 - - - - - - -
25/04:00pm 10.3 WNW 42 48 1008.9 - 0.0 - - - - - - -
25/03:30pm 11.0 WNW 39 47 1009.0 - 0.0 - - - - - - -
25/03:00pm 11.2 WNW 40 48 1009.0 - 0.0 - - - - - - -
25/02:30pm 11.1 WNW 41 48 1008.9 - 0.0 - - - - - - -
25/02:00pm 11.2 WNW 40 47 1009.0 - 0.0 - - - - - - -
25/01:30pm 11.1 WNW 35 42 1009.8 - 0.0 - - - - - - -
25/01:00pm 11.0 WNW 38 47 1010.0 - 0.0 - - - - - - -
25/12:30pm 10.9 WNW 39 45 1009.9 - 0.0 - - - - - - -
25/12:00pm 10.9 WNW 35 41 1010.9 - 0.0 - - - - - - -
25/11:30am 11.1 WNW 38 44 1011.2 - 0.0 - - - - - - -
25/11:00am 10.6 WNW 40 45 1011.3 - 0.0 - - - - - - -
25/10:30am 10.2 WNW 38 44 1011.8 - 0.0 - - - - - - -
25/10:00am 10.1 WNW 37 44 1011.9 - 0.0 - - - - - - -
25/09:30am 9.9 WNW 33 40 1012.1 - 0.0 - - - - - - -
25/09:00am 9.8 WNW 32 39 1012.1 - 1.2 - - - - - - -
25/08:30am 9.6 WNW 38 42 1011.8 - 1.2 - - - - - - -
25/08:00am 9.3 WNW 34 40 1012.1 - 1.2 - - - - - - -
25/07:30am 9.4 WNW 33 39 1012.0 - 1.2 - - - - - - -
25/07:00am 9.4 WNW 35 41 1011.8 - 1.2 - - - - - - -
25/06:30am 9.6 WNW 37 42 1011.5 - 1.2 - - - - - - -
25/06:00am 9.8 WNW 38 43 1011.7 - 1.2 - - - - - - -
25/05:30am 9.9 WNW 32 40 1011.8 - 1.2 - - - - - - -
25/05:00am 9.7 WNW 33 41 1012.0 - 1.2 - - - - - - -
25/04:30am 10.0 WNW 32 39 1012.0 - 1.2 - - - - - - -
25/04:00am 9.7 WNW 35 42 1012.2 - 1.2 - - - - - - -
25/03:30am 9.6 WNW 34 39 1012.3 - 1.2 - - - - - - -
25/03:00am 9.7 WNW 34 39 1012.9 - 1.2 - - - - - - -
25/02:30am 9.5 WNW 36 43 1012.7 - 1.2 - - - - - - -
25/02:23am 9.4 WNW 33 43 1012.7 - 1.2 - - - - - - -
25/02:00am 9.7 WNW 32 39 1013.2 - 1.2 - - - - - - -
25/01:30am 9.3 WNW 30 34 1013.2 - 1.2 - - - - - - -
25/01:00am 9.3 WNW 28 32 1013.4 - 1.2 - - - - - - -
25/12:30am 9.2 WNW 27 31 1013.7 - 1.2 - - - - - - -
25/12:00am 8.5 WNW 26 31 1013.9 - 1.2 - - - - - - -
 
Date/Time
EST
Temp
°C
Wind Pressure Rain since
9am
mm
Weather Cloud Vis
km
Sea
Height
m
Swell
Dir  Spd
kts
Gust
kts
hPa Trend Height
m
Period
s
Dir
24/11:30pm 8.5 WNW 27 31 1014.3 - 1.2 - - - - - - -
24/11:00pm 9.0 WNW 24 29 1014.2 - 1.0 - - - - - - -
24/10:49pm 9.0 WNW 24 28 1014.5 - 1.0 - - - - - - -
24/10:30pm 9.5 W 28 33 1014.3 - 1.0 - - - - - - -
24/10:00pm 9.8 W 26 34 1014.5 - 1.0 - - - - - - -
24/09:30pm 9.2 W 32 38 1014.6 - 1.0 - - - - - - -
24/09:00pm 9.3 W 29 35 1014.8 - 1.0 - - - - - - -
24/08:30pm 9.9 W 25 29 1014.9 - 0.6 - - - - - - -
24/08:00pm 9.5 W 28 35 1015.0 - 0.6 - - - - - - -
24/07:30pm 9.4 W 26 31 1014.9 - 0.6 - - - - - - -
24/07:00pm 8.5 W 26 37 1014.9 - 0.6 - - - - - - -
24/06:50pm 9.7 W 25 35 1014.6 - 0.4 - - - - - - -
24/06:30pm 10.2 W 29 35 1014.6 - 0.4 - - - - - - -
24/06:00pm 9.6 W 28 33 1014.5 - 0.4 - - - - - - -
24/05:30pm 9.7 W 28 33 1014.4 - 0.4 - - - - - - -
24/05:00pm 9.8 W 29 34 1014.4 - 0.4 - - - - - - -
24/04:30pm 9.6 W 29 33 1014.2 - 0.4 - - - - - - -
24/04:00pm 9.9 W 30 35 1014.2 - 0.4 - - - - - - -
24/03:30pm 9.6 W 25 32 1014.3 - 0.4 - - - - - - -
24/03:00pm 9.4 W 22 32 1014.6 - 0.4 - - - - - - -
24/02:55pm 9.8 W 23 33 1014.5 - 0.2 - - - - - - -
24/02:30pm 9.5 WSW 27 33 1014.3 - 0.2 - - - - - - -
24/02:00pm 11.1 WSW 21 24 1014.5 - 0.2 - - - - - - -
24/01:37pm 10.0 W 27 41 1013.9 - 0.2 - - - - - - -
24/01:30pm 11.3 W 25 31 1014.3 - 0.2 - - - - - - -
24/01:00pm 10.9 W 26 30 1014.5 - 0.2 - - - - - - -
24/12:30pm 10.0 WSW 25 30 1014.8 - 0.2 - - - - - - -
24/12:00pm 10.7 WSW 21 25 1015.2 - 0.2 - - - - - - -
24/11:31am 10.4 WSW 23 25 1015.5 - 0.2 - - - - - - -
24/11:30am 10.7 W 17 25 1015.5 - 0.2 - - - - - - -
24/11:00am 9.1 W 17 22 1016.1 - 0.2 - - - - - - -
24/10:30am 7.9 W 22 29 1016.1 - 0.2 - - - - - - -
24/10:19am 9.5 WSW 18 32 1016.0 - 0.0 - - - - - - -
24/10:00am 8.2 WSW 20 26 1016.2 - 0.0 - - - - - - -
24/09:53am 7.9 WSW 22 33 1016.0 - 0.0 - - - - - - -
24/09:33am 9.9 W 32 37 1015.5 - 0.0 - - - - - - -
24/09:31am 10.2 W 21 36 1015.7 - 0.0 - - - - - - -
24/09:30am 10.2 WSW 20 25 1015.8 - 0.0 - - - - - - -
24/09:19am 9.4 W 19 23 1015.8 - 0.0 - - - - - - -
24/09:00am 8.7 SW 22 28 1015.9 - 6.8 - - - - - - -
24/08:44am 9.2 WSW 27 37 1015.2 - 6.8 - - - - - - -
24/08:30am 8.9 WSW 23 27 1015.3 - 6.8 - - - - - - -
24/08:01am 8.7 WSW 24 34 1014.8 - 6.8 - - - - - - -
24/08:00am 9.0 WSW 23 32 1014.8 - 6.8 - - - - - - -
24/07:33am 9.1 W 22 32 1014.5 - 6.8 - - - - - - -
24/07:30am 9.2 W 22 26 1014.5 - 6.8 - - - - - - -
24/07:00am 9.2 WSW 22 27 1014.2 - 6.8 - - - - - - -
24/06:30am 9.2 SW 24 29 1013.7 - 6.8 - - - - - - -
24/06:13am 8.9 SW 23 29 1013.6 - 6.8 - - - - - - -
24/06:00am 8.4 W 19 24 1013.7 - 6.8 - - - - - - -
24/05:39am 8.7 WSW 23 34 1013.1 - 6.8 - - - - - - -
24/05:30am 8.8 WSW 22 27 1013.1 - 6.8 - - - - - - -
24/05:00am 8.4 WSW 22 28 1012.9 - 6.8 - - - - - - -
24/04:30am 6.9 SW 24 30 1012.8 - 6.8 - - - - - - -
24/04:13am 9.0 WSW 30 42 1012.1 - 6.6 - - - - - - -
24/04:00am 8.9 WSW 27 34 1012.3 - 6.6 - - - - - - -
24/03:30am 9.0 WSW 30 37 1012.1 - 6.6 - - - - - - -
24/03:00am 9.2 WSW 31 39 1012.2 - 6.6 - - - - - - -
24/02:30am 9.5 WSW 31 38 1011.7 - 6.6 - - - - - - -
24/02:00am 9.6 WSW 34 40 1011.3 - 6.6 - - - - - - -
24/01:30am 9.9 WSW 33 42 1010.7 - 6.6 - - - - - - -
24/01:00am 10.0 WSW 33 39 1010.6 - 6.6 - - - - - - -
24/12:30am 9.7 WSW 36 42 1010.2 - 6.6 - - - - - - -
24/12:06am 9.3 WSW 38 48 1010.0 - 6.6 - - - - - - -
24/12:00am 9.9 WSW 36 43 1010.1 - 6.6 - - - - - - -
 
Date/Time
EST
Temp
°C
Wind Pressure Rain since
9am
mm
Weather Cloud Vis
km
Sea
Height
m
Swell
Dir  Spd
kts
Gust
kts
hPa Trend Height
m
Period
s
Dir
23/11:30pm 9.8 WSW 37 43 1010.1 - 6.6 - - - - - - -
23/11:00pm 9.6 WSW 36 42 1009.9 - 6.6 - - - - - - -
23/10:43pm 9.5 WSW 33 43 1009.7 - 6.6 - - - - - - -
23/10:30pm 9.8 WSW 33 39 1009.6 - 6.6 - - - - - - -
23/10:00pm 9.6 SW 33 40 1009.3 - 6.4 - - - - - - -
23/09:40pm 9.7 SW 36 40 1009.0 - 6.4 - - - - - - -
23/09:30pm 10.2 W 37 43 1008.7 - 6.4 - - - - - - -
23/09:18pm 10.5 W 34 45 1008.6 - 6.0 - - - - - - -
23/09:00pm 10.7 W 36 43 1008.9 - 4.6 - - - - - - -
23/08:30pm 10.4 W 37 47 1008.2 - 2.4 - - - - - - -
23/08:14pm 10.8 WNW 40 51 1007.6 - 1.0 - - - - - - -
23/08:00pm 11.4 WNW 39 47 1007.5 - 0.0 - - - - - - -
23/07:30pm 12.0 WNW 35 42 1007.9 - 0.0 - - - - - - -
23/07:00pm 11.8 WNW 39 46 1007.7 - 0.0 - - - - - - -
23/06:30pm 11.9 WNW 38 44 1008.0 - 0.0 - - - - - - -
23/06:00pm 11.9 WNW 38 44 1008.0 - 0.0 - - - - - - -
23/05:30pm 12.4 WNW 33 40 1007.9 - 0.0 - - - - - - -
23/05:00pm 12.6 WNW 37 43 1007.8 - 0.0 - - - - - - -
23/04:30pm 12.7 WNW 39 45 1007.7 - 0.0 - - - - - - -
23/04:00pm 12.7 WNW 39 44 1008.1 - 0.0 - - - - - - -
23/03:30pm 13.0 WNW 34 39 1008.8 - 0.0 - - - - - - -
23/03:00pm 13.1 WNW 34 40 1009.3 - 0.0 - - - - - - -
23/02:52pm 13.3 WNW 30 40 1009.3 - 0.0 - - - - - - -
23/02:30pm 13.0 NW 28 35 1009.6 - 0.0 - - - - - - -
23/02:17pm 13.0 NW 27 37 1009.8 - 0.0 - - - - - - -
23/02:00pm 12.8 NW 28 35 1010.1 - 0.0 - - - - - - -
23/01:30pm 12.6 WNW 30 37 1010.5 - 0.0 - - - - - - -
23/01:00pm 12.2 WNW 34 38 1010.9 - 0.0 - - - - - - -
23/12:30pm 12.4 WNW 36 42 1011.5 - 0.0 - - - - - - -
23/12:00pm 12.3 WNW 39 44 1012.2 - 0.0 - - - - - - -

Other Formats:

Comma delimited format used in spreadsheet applications
http://www.bom.gov.au/fwo/IDT60701/IDT60701.94949.axf

JavaScript Object Notation format (JSON) in row-major order
http://www.bom.gov.au/fwo/IDT60701/IDT60701.94949.json